Laida — EAVE — position and weather

sailwx.info

Track history (hours):
 
Tides and Currents Weather Stations Pressure Air Temp Water Temp Dewpoint Dewpoint Depression Visibility Wind Speed Wind Dir Waves Ship Positions

Laida

Last reported at 2014-Oct-01 06:25 UTC. Time now 2014-Oct-02 02:33 UTC.
Position N 50°31' W 000°02'.

Length 100 m; draft 6.6 m.

Type: Cargo ship. MMSI: 224509000.

Date/timePositionNaut miles runAvg speedWind from/ knotsBaromVisibWave heightAir tempDewpointWater temp
2014-Oct-01 06:25N 50°31' W 000°02'1412.9
2014-Oct-01 05:22N 50°34' E 000°18'1012.4
2014-Oct-01 04:33N 50°37' E 000°33'1211.6
2014-Oct-01 03:33N 50°44' E 000°48'3511.4
2014-Oct-01 00:29N 51°06' E 001°32'1314.2
2014-Sep-30 23:33N 51°18' E 001°40'1413.5
2014-Sep-30 22:33N 51°31' E 001°45'1212.4
2014-Sep-30 21:33N 51°43' E 001°45'1111.5
2014-Sep-30 20:34N 51°55' E 001°45'1010.5
2014-Sep-30 19:33N 52°05' E 001°48'1010.3
2014-Sep-30 18:33N 52°15' E 001°50'10 9.9
2014-Sep-30 17:33N 52°25' E 001°53'9 9.5
2014-Sep-30 16:33N 52°34' E 001°55'1010.0
2014-Sep-30 15:33N 52°44' E 001°56'1111.3
2014-Sep-30 14:33N 52°53' E 001°43'1212.3
2014-Sep-30 13:33N 53°01' E 001°29'5212.4
2014-Sep-30 09:21N 53°40' E 000°30'1113.5
2014-Sep-30 08:33N 53°50' E 000°23'1413.6
2014-Sep-30 07:33N 54°02' E 000°14'1313.4
2014-Sep-30 06:33N 54°15' E 000°06'1313.0
2014-Sep-30 05:33N 54°27' W 000°02'1212.5
2014-Sep-30 04:33N 54°39' W 000°10'1212.2
2014-Sep-30 03:33N 54°50' W 000°18'1212.0
2014-Sep-30 02:32N 55°01' W 000°26'  
2014-Sep-27 12:32N 57°09' W 002°05'0 0.0
2014-Sep-27 11:32N 57°09' W 002°05'0 0.0
2014-Sep-27 10:32N 57°09' W 002°05'0 0.0
2014-Sep-27 09:32N 57°09' W 002°05'0 0.0
2014-Sep-27 08:26N 57°09' W 002°05'143 9.3
2014-Sep-26 17:08N 55°14' E 000°27'21811.6
2014-Sep-25 22:21N 52°07' E 003°36'1011.9
2014-Sep-25 21:31N 52°03' E 003°50'1111.0
2014-Sep-25 20:33N 51°59' E 004°06'1211.6
2014-Sep-25 19:33N 51°54' E 004°23'1 1.2
2014-Sep-25 18:33N 51°55' E 004°25'0 0.0
2014-Sep-25 17:33N 51°55' E 004°25'0 0.0
2014-Sep-25 16:33N 51°55' E 004°25'0 0.0
2014-Sep-25 15:33N 51°55' E 004°25'0 0.0
2014-Sep-25 14:32N 51°55' E 004°25'0 0.0
2014-Sep-25 13:24N 51°55' E 004°25'0 0.0
2014-Sep-25 12:31N 51°55' E 004°25'0 0.0
2014-Sep-25 11:33N 51°55' E 004°25'0 0.0
2014-Sep-25 10:33N 51°55' E 004°25'0 0.0
2014-Sep-25 09:33N 51°55' E 004°25'0 0.0
2014-Sep-25 08:33N 51°55' E 004°25'0 0.0
2014-Sep-25 07:33N 51°55' E 004°25'0 0.0
2014-Sep-25 06:33N 51°55' E 004°25'0 0.0
2014-Sep-25 05:32N 51°55' E 004°25'0 0.0
2014-Sep-25 04:33N 51°55' E 004°25'0 0.0
2014-Sep-25 03:33N 51°55' E 004°25'0 0.0
2014-Sep-25 02:33N 51°55' E 004°25'0 0.0
2014-Sep-25 01:32N 51°55' E 004°25'0 0.0
2014-Sep-25 00:33N 51°55' E 004°25'0 0.0
2014-Sep-24 23:33N 51°55' E 004°25'0 0.0
2014-Sep-24 22:33N 51°55' E 004°25'0 0.0
2014-Sep-24 21:33N 51°55' E 004°25'0 0.0
2014-Sep-24 20:33N 51°55' E 004°25'0 0.1
2014-Sep-24 19:33N 51°54' E 004°25'6 5.8
2014-Sep-24 18:33N 51°54' E 004°16'10 9.8
2014-Sep-24 17:33N 51°60' E 004°02'7011.7
2014-Sep-24 11:32N 51°31' E 002°18'1812.3
2014-Sep-24 10:06N 51°15' E 002°05'611.4
2014-Sep-24 09:33N 51°12' E 001°57'1010.3
2014-Sep-24 08:33N 51°06' E 001°43'49 9.5
2014-Sep-24 03:22N 50°29' E 000°52'1011.1
2014-Sep-24 02:27N 50°26' E 000°36'1011.1
2014-Sep-24 01:33N 50°24' E 000°21'31310.4
2014-Sep-22 19:28N 51°26' W 007°45'1112.2
2014-Sep-22 18:34N 51°34' W 007°57'1212.2
2014-Sep-22 17:34N 51°43' W 008°11'9 9.1
2014-Sep-22 16:34N 51°51' W 008°19'5 5.2
2014-Sep-22 15:31N 51°54' W 008°25'0 0.0
2014-Sep-22 14:31N 51°54' W 008°25'0 0.0
2014-Sep-22 13:31N 51°54' W 008°25'0 0.0
2014-Sep-22 12:31N 51°54' W 008°25'0 0.0
2014-Sep-22 11:31N 51°54' W 008°25'0 0.0
2014-Sep-22 10:31N 51°54' W 008°25'0 0.0
2014-Sep-22 09:31N 51°54' W 008°25'0 0.0
2014-Sep-22 08:31N 51°54' W 008°25'0 0.0
2014-Sep-22 07:31N 51°54' W 008°25'0 0.0
2014-Sep-22 06:31N 51°54' W 008°25'0 0.0
2014-Sep-22 05:31N 51°54' W 008°25'0 0.0
2014-Sep-22 04:31N 51°54' W 008°25'0 0.0
2014-Sep-22 03:31N 51°54' W 008°25'0 0.0
2014-Sep-22 02:31N 51°54' W 008°25'0 0.0
2014-Sep-22 01:31N 51°54' W 008°25'0 0.0
2014-Sep-22 00:31N 51°54' W 008°25'0 0.0
2014-Sep-21 23:31N 51°54' W 008°25'0 0.0
2014-Sep-21 22:31N 51°54' W 008°25'0 0.0
2014-Sep-21 21:31N 51°54' W 008°25'0 0.0
2014-Sep-21 20:31N 51°54' W 008°25'0 0.0
2014-Sep-21 19:31N 51°54' W 008°25'0 0.0
2014-Sep-21 18:31N 51°54' W 008°25'0 0.0
2014-Sep-21 17:31N 51°54' W 008°25'0 0.0
2014-Sep-21 16:31N 51°54' W 008°25'0 0.0
2014-Sep-21 15:31N 51°54' W 008°25'0 0.0
2014-Sep-21 14:31N 51°54' W 008°25'0 0.0
2014-Sep-21 13:31N 51°54' W 008°25'0 0.0
2014-Sep-21 12:31N 51°54' W 008°25'0 0.0
2014-Sep-21 11:31N 51°54' W 008°25'0 0.0
2014-Sep-21 10:31N 51°54' W 008°25'0 0.0
2014-Sep-21 09:31N 51°54' W 008°25'0 0.0
2014-Sep-21 08:31N 51°54' W 008°25'0 0.0
2014-Sep-21 07:31N 51°54' W 008°25'0 0.0
2014-Sep-21 06:31N 51°54' W 008°25'  
Track history (hours):
 
Tides and Currents Weather Stations Pressure Air Temp Water Temp Dewpoint Dewpoint Depression Visibility Wind Speed Wind Dir Waves Ship Positions

Laida

Last reported at 2014-Oct-01 06:25 UTC. Time now 2014-Oct-02 02:33 UTC.
Position N 50°31' W 000°02'.

Length 100 m; draft 6.6 m.

Type: Cargo ship. MMSI: 224509000.

Date/timePositionNaut miles runAvg speedWind from/ knotsBaromVisibWave heightAir tempDewpointWater temp
2014-Oct-01 06:25N 50°31' W 000°02'1412.9
2014-Oct-01 05:22N 50°34' E 000°18'1012.4
2014-Oct-01 04:33N 50°37' E 000°33'1211.6
2014-Oct-01 03:33N 50°44' E 000°48'3511.4
2014-Oct-01 00:29N 51°06' E 001°32'1314.2
2014-Sep-30 23:33N 51°18' E 001°40'1413.5
2014-Sep-30 22:33N 51°31' E 001°45'1212.4
2014-Sep-30 21:33N 51°43' E 001°45'1111.5
2014-Sep-30 20:34N 51°55' E 001°45'1010.5
2014-Sep-30 19:33N 52°05' E 001°48'1010.3
2014-Sep-30 18:33N 52°15' E 001°50'10 9.9
2014-Sep-30 17:33N 52°25' E 001°53'9 9.5
2014-Sep-30 16:33N 52°34' E 001°55'1010.0
2014-Sep-30 15:33N 52°44' E 001°56'1111.3
2014-Sep-30 14:33N 52°53' E 001°43'1212.3
2014-Sep-30 13:33N 53°01' E 001°29'5212.4
2014-Sep-30 09:21N 53°40' E 000°30'1113.5
2014-Sep-30 08:33N 53°50' E 000°23'1413.6
2014-Sep-30 07:33N 54°02' E 000°14'1313.4
2014-Sep-30 06:33N 54°15' E 000°06'1313.0
2014-Sep-30 05:33N 54°27' W 000°02'1212.5
2014-Sep-30 04:33N 54°39' W 000°10'1212.2
2014-Sep-30 03:33N 54°50' W 000°18'1212.0
2014-Sep-30 02:32N 55°01' W 000°26'  
2014-Sep-27 12:32N 57°09' W 002°05'0 0.0
2014-Sep-27 11:32N 57°09' W 002°05'0 0.0
2014-Sep-27 10:32N 57°09' W 002°05'0 0.0
2014-Sep-27 09:32N 57°09' W 002°05'0 0.0
2014-Sep-27 08:26N 57°09' W 002°05'143 9.3
2014-Sep-26 17:08N 55°14' E 000°27'21811.6
2014-Sep-25 22:21N 52°07' E 003°36'1011.9
2014-Sep-25 21:31N 52°03' E 003°50'1111.0
2014-Sep-25 20:33N 51°59' E 004°06'1211.6
2014-Sep-25 19:33N 51°54' E 004°23'1 1.2
2014-Sep-25 18:33N 51°55' E 004°25'0 0.0
2014-Sep-25 17:33N 51°55' E 004°25'0 0.0
2014-Sep-25 16:33N 51°55' E 004°25'0 0.0
2014-Sep-25 15:33N 51°55' E 004°25'0 0.0
2014-Sep-25 14:32N 51°55' E 004°25'0 0.0
2014-Sep-25 13:24N 51°55' E 004°25'0 0.0
2014-Sep-25 12:31N 51°55' E 004°25'0 0.0
2014-Sep-25 11:33N 51°55' E 004°25'0 0.0
2014-Sep-25 10:33N 51°55' E 004°25'0 0.0
2014-Sep-25 09:33N 51°55' E 004°25'0 0.0
2014-Sep-25 08:33N 51°55' E 004°25'0 0.0
2014-Sep-25 07:33N 51°55' E 004°25'0 0.0
2014-Sep-25 06:33N 51°55' E 004°25'0 0.0
2014-Sep-25 05:32N 51°55' E 004°25'0 0.0
2014-Sep-25 04:33N 51°55' E 004°25'0 0.0
2014-Sep-25 03:33N 51°55' E 004°25'0 0.0
2014-Sep-25 02:33N 51°55' E 004°25'0 0.0
2014-Sep-25 01:32N 51°55' E 004°25'0 0.0
2014-Sep-25 00:33N 51°55' E 004°25'0 0.0
2014-Sep-24 23:33N 51°55' E 004°25'0 0.0
2014-Sep-24 22:33N 51°55' E 004°25'0 0.0
2014-Sep-24 21:33N 51°55' E 004°25'0 0.0
2014-Sep-24 20:33N 51°55' E 004°25'0 0.1
2014-Sep-24 19:33N 51°54' E 004°25'6 5.8
2014-Sep-24 18:33N 51°54' E 004°16'10 9.8
2014-Sep-24 17:33N 51°60' E 004°02'7011.7
2014-Sep-24 11:32N 51°31' E 002°18'1812.3
2014-Sep-24 10:06N 51°15' E 002°05'611.4
2014-Sep-24 09:33N 51°12' E 001°57'1010.3
2014-Sep-24 08:33N 51°06' E 001°43'49 9.5
2014-Sep-24 03:22N 50°29' E 000°52'1011.1
2014-Sep-24 02:27N 50°26' E 000°36'1011.1
2014-Sep-24 01:33N 50°24' E 000°21'31310.4
2014-Sep-22 19:28N 51°26' W 007°45'1112.2
2014-Sep-22 18:34N 51°34' W 007°57'1212.2
2014-Sep-22 17:34N 51°43' W 008°11'9 9.1
2014-Sep-22 16:34N 51°51' W 008°19'5 5.2
2014-Sep-22 15:31N 51°54' W 008°25'0 0.0
2014-Sep-22 14:31N 51°54' W 008°25'0 0.0
2014-Sep-22 13:31N 51°54' W 008°25'0 0.0
2014-Sep-22 12:31N 51°54' W 008°25'0 0.0
2014-Sep-22 11:31N 51°54' W 008°25'0 0.0
2014-Sep-22 10:31N 51°54' W 008°25'0 0.0
2014-Sep-22 09:31N 51°54' W 008°25'0 0.0
2014-Sep-22 08:31N 51°54' W 008°25'0 0.0
2014-Sep-22 07:31N 51°54' W 008°25'0 0.0
2014-Sep-22 06:31N 51°54' W 008°25'0 0.0
2014-Sep-22 05:31N 51°54' W 008°25'0 0.0
2014-Sep-22 04:31N 51°54' W 008°25'0 0.0
2014-Sep-22 03:31N 51°54' W 008°25'0 0.0
2014-Sep-22 02:31N 51°54' W 008°25'0 0.0
2014-Sep-22 01:31N 51°54' W 008°25'0 0.0
2014-Sep-22 00:31N 51°54' W 008°25'0 0.0
2014-Sep-21 23:31N 51°54' W 008°25'0 0.0
2014-Sep-21 22:31N 51°54' W 008°25'0 0.0
2014-Sep-21 21:31N 51°54' W 008°25'0 0.0
2014-Sep-21 20:31N 51°54' W 008°25'0 0.0
2014-Sep-21 19:31N 51°54' W 008°25'0 0.0
2014-Sep-21 18:31N 51°54' W 008°25'0 0.0
2014-Sep-21 17:31N 51°54' W 008°25'0 0.0
2014-Sep-21 16:31N 51°54' W 008°25'0 0.0
2014-Sep-21 15:31N 51°54' W 008°25'0 0.0
2014-Sep-21 14:31N 51°54' W 008°25'0 0.0
2014-Sep-21 13:31N 51°54' W 008°25'0 0.0
2014-Sep-21 12:31N 51°54' W 008°25'0 0.0
2014-Sep-21 11:31N 51°54' W 008°25'0 0.0
2014-Sep-21 10:31N 51°54' W 008°25'0 0.0
2014-Sep-21 09:31N 51°54' W 008°25'0 0.0
2014-Sep-21 08:31N 51°54' W 008°25'0 0.0
2014-Sep-21 07:31N 51°54' W 008°25'0 0.0
2014-Sep-21 06:31N 51°54' W 008°25'  

Dump ship's entire track history